createdAt,value
2023-03-20T00:00:22.809Z,0.40
2023-03-20T00:01:22.791Z,0.40
2023-03-20T00:02:22.797Z,0.30
2023-03-20T00:03:22.863Z,0.40
2023-03-20T00:04:22.757Z,0.30
2023-03-20T00:05:22.737Z,0.30
2023-03-20T00:06:22.730Z,0.30
2023-03-20T00:07:22.725Z,0.30
2023-03-20T00:08:22.699Z,0.30
2023-03-20T00:09:22.689Z,0.20
2023-03-20T00:10:22.692Z,0.40
2023-03-20T00:11:22.664Z,0.40
2023-03-20T00:12:22.650Z,0.40
2023-03-20T00:13:22.641Z,0.40
2023-03-20T00:14:22.663Z,0.40
2023-03-20T00:15:22.612Z,0.30
2023-03-20T00:16:22.629Z,0.40
2023-03-20T00:17:22.619Z,0.30
2023-03-20T00:18:22.578Z,17.60
2023-03-20T00:19:22.587Z,22.60
2023-03-20T00:20:22.561Z,21.00
2023-03-20T00:21:22.537Z,21.29
2023-03-20T00:22:22.567Z,21.60
2023-03-20T00:23:22.514Z,22.60
2023-03-20T00:24:22.500Z,22.39
2023-03-20T00:25:22.488Z,23.20
2023-03-20T00:26:22.473Z,23.10
2023-03-20T00:27:22.462Z,23.70
2023-03-20T00:28:22.447Z,22.89
2023-03-20T00:29:22.439Z,24.70
2023-03-20T00:30:22.436Z,23.39
2023-03-20T00:31:22.476Z,24.70
2023-03-20T00:32:22.407Z,24.00
2023-03-20T00:33:22.384Z,22.39
2023-03-20T00:34:22.370Z,21.00
2023-03-20T00:35:22.380Z,21.00
2023-03-20T00:36:22.358Z,22.10
2023-03-20T00:37:22.335Z,21.20
2023-03-20T00:38:22.317Z,1.00
2023-03-20T00:39:22.329Z,0.30
2023-03-20T00:40:22.291Z,0.30
2023-03-20T00:41:22.285Z,0.30
2023-03-20T00:42:22.342Z,0.30
2023-03-20T00:43:22.254Z,0.30
2023-03-20T00:44:22.253Z,0.30
2023-03-20T00:45:22.225Z,0.30
2023-03-20T00:46:22.255Z,0.20
2023-03-20T00:47:22.199Z,0.20
2023-03-20T00:48:22.189Z,0.20
2023-03-20T00:49:22.173Z,0.30
2023-03-20T00:50:22.172Z,0.20
2023-03-20T00:51:22.172Z,0.30
2023-03-20T00:52:22.134Z,0.30
2023-03-20T00:53:22.123Z,0.30
2023-03-20T00:54:22.113Z,0.30
2023-03-20T00:55:22.097Z,0.30
2023-03-20T00:56:22.083Z,0.30
2023-03-20T00:57:22.070Z,0.40
2023-03-20T00:58:22.058Z,0.40
2023-03-20T00:59:22.046Z,0.30
2023-03-20T01:00:22.035Z,0.30
2023-03-20T01:01:22.029Z,0.40
2023-03-20T01:02:22.140Z,0.30
2023-03-20T01:03:22.001Z,0.40
2023-03-20T01:04:21.978Z,0.30
2023-03-20T01:05:21.964Z,0.30
2023-03-20T01:06:21.960Z,0.40
2023-03-20T01:07:21.964Z,0.30
2023-03-20T01:08:21.922Z,0.30
2023-03-20T01:09:21.911Z,0.30
2023-03-20T01:10:21.896Z,0.30
2023-03-20T01:11:21.884Z,0.30
2023-03-20T01:12:21.873Z,0.40
2023-03-20T01:13:21.880Z,0.30
2023-03-20T01:14:21.854Z,0.40
2023-03-20T01:15:21.839Z,0.30
2023-03-20T01:16:21.915Z,0.30
2023-03-20T01:17:21.804Z,0.30
2023-03-20T01:18:21.785Z,0.30
2023-03-20T01:19:21.779Z,0.30
2023-03-20T01:20:21.763Z,0.30
2023-03-20T01:21:21.745Z,0.30
2023-03-20T01:22:21.735Z,0.20
2023-03-20T01:23:21.743Z,0.30
2023-03-20T01:24:21.717Z,0.30
2023-03-20T01:25:21.691Z,0.30
2023-03-20T01:26:21.678Z,0.30
2023-03-20T01:27:21.665Z,0.20
2023-03-20T01:28:21.652Z,0.30
2023-03-20T01:29:21.650Z,0.30
2023-03-20T01:30:21.627Z,0.30
2023-03-20T01:31:21.640Z,0.30
2023-03-20T01:32:21.603Z,0.30
2023-03-20T01:33:21.588Z,0.20
2023-03-20T01:34:21.585Z,0.30
2023-03-20T01:35:21.560Z,0.30
2023-03-20T01:36:21.546Z,0.20
2023-03-20T01:37:21.530Z,0.30
2023-03-20T01:38:21.519Z,0.30
2023-03-20T01:39:21.525Z,0.30
2023-03-20T01:40:21.488Z,0.40
2023-03-20T01:41:21.487Z,0.40
2023-03-20T01:42:21.462Z,0.20
2023-03-20T01:43:21.448Z,0.30
2023-03-20T01:44:21.435Z,0.30
2023-03-20T01:45:21.424Z,0.30
2023-03-20T01:46:21.492Z,0.30
2023-03-20T01:47:21.393Z,0.30
2023-03-20T01:48:21.399Z,0.30
2023-03-20T01:49:21.376Z,0.40
2023-03-20T01:50:21.357Z,0.30
2023-03-20T01:51:21.350Z,0.30
2023-03-20T01:52:21.328Z,0.40
2023-03-20T01:53:21.318Z,0.30
2023-03-20T01:54:21.302Z,0.40
2023-03-20T01:55:21.331Z,0.40
2023-03-20T01:56:21.286Z,0.30
2023-03-20T01:57:21.263Z,0.40
2023-03-20T01:58:21.270Z,0.40
2023-03-20T01:59:21.296Z,0.30
2023-03-20T02:00:21.256Z,0.40
2023-03-20T02:01:21.318Z,0.30
2023-03-20T02:02:21.265Z,0.40
2023-03-20T02:03:21.226Z,0.40
2023-03-20T02:04:21.261Z,0.40
2023-03-20T02:05:21.256Z,0.30
2023-03-20T02:06:21.148Z,0.40
2023-03-20T02:07:21.136Z,0.30
2023-03-20T02:08:21.119Z,0.40
2023-03-20T02:09:21.112Z,0.40
2023-03-20T02:10:21.091Z,0.30
2023-03-20T02:11:21.105Z,0.40
2023-03-20T02:12:21.065Z,0.50
2023-03-20T02:13:21.058Z,0.40
2023-03-20T02:14:21.040Z,0.40
2023-03-20T02:15:21.031Z,0.40
2023-03-20T02:16:21.077Z,0.40
2023-03-20T02:17:21.000Z,0.40
2023-03-20T02:18:20.983Z,0.40
2023-03-20T02:19:20.971Z,0.30
2023-03-20T02:20:20.957Z,0.40
2023-03-20T02:21:20.942Z,0.40
2023-03-20T02:22:20.937Z,0.40
2023-03-20T02:23:20.915Z,0.40
2023-03-20T02:24:20.904Z,0.20
2023-03-20T02:25:20.888Z,0.30
2023-03-20T02:26:20.873Z,0.30
2023-03-20T02:27:20.899Z,0.20
2023-03-20T02:28:20.848Z,0.30
2023-03-20T02:29:20.836Z,0.30
2023-03-20T02:30:20.819Z,0.30
2023-03-20T02:31:20.849Z,0.30
2023-03-20T02:32:20.806Z,0.30
2023-03-20T02:33:20.779Z,0.30
2023-03-20T02:34:20.766Z,0.30
2023-03-20T02:35:20.755Z,0.30
2023-03-20T02:36:20.780Z,0.30
2023-03-20T02:37:20.734Z,0.30
2023-03-20T02:38:20.713Z,0.30
2023-03-20T02:39:20.698Z,0.30
2023-03-20T02:40:20.688Z,0.40
2023-03-20T02:41:20.765Z,0.30
2023-03-20T02:42:20.661Z,0.40
2023-03-20T02:43:20.774Z,0.30
2023-03-20T02:44:20.637Z,0.30
2023-03-20T02:45:20.622Z,0.30
2023-03-20T02:46:20.671Z,0.30
2023-03-20T02:47:20.597Z,0.40
2023-03-20T02:48:20.584Z,0.30
2023-03-20T02:49:20.571Z,0.30
2023-03-20T02:50:20.567Z,0.30
2023-03-20T02:51:20.550Z,0.20
2023-03-20T02:52:20.532Z,0.30
2023-03-20T02:53:20.545Z,0.20
2023-03-20T02:54:20.510Z,0.30
2023-03-20T02:55:20.495Z,0.30
2023-03-20T02:56:20.482Z,0.30
2023-03-20T02:57:20.469Z,0.30
2023-03-20T02:58:20.455Z,0.40
2023-03-20T02:59:20.483Z,0.30
2023-03-20T03:00:20.432Z,0.30
2023-03-20T03:01:20.445Z,0.40
2023-03-20T03:02:20.486Z,0.30
2023-03-20T03:03:20.394Z,0.40
2023-03-20T03:04:20.381Z,0.40
2023-03-20T03:05:20.370Z,0.30
2023-03-20T03:06:20.358Z,0.30
2023-03-20T03:07:20.342Z,0.30
2023-03-20T03:08:20.335Z,0.30
2023-03-20T03:09:20.316Z,0.30
2023-03-20T03:10:20.306Z,0.30
2023-03-20T03:11:20.292Z,0.30
2023-03-20T03:12:20.293Z,0.20
2023-03-20T03:13:20.271Z,0.30
2023-03-20T03:14:20.258Z,0.30
2023-03-20T03:15:20.265Z,0.20
2023-03-20T03:16:20.271Z,0.30
2023-03-20T03:17:20.217Z,0.30
2023-03-20T03:18:20.204Z,0.30
2023-03-20T03:19:20.189Z,0.30
2023-03-20T03:20:20.175Z,0.30
2023-03-20T03:21:20.165Z,0.30
2023-03-20T03:22:20.149Z,0.30
2023-03-20T03:23:20.139Z,0.30
2023-03-20T03:24:26.796Z,0.30
2023-03-20T03:25:20.121Z,0.30
2023-03-20T03:26:20.104Z,0.30
2023-03-20T03:27:20.097Z,0.30
2023-03-20T03:28:20.077Z,0.30
2023-03-20T03:29:20.062Z,0.30
2023-03-20T03:30:20.054Z,0.30
2023-03-20T03:31:20.146Z,0.30
2023-03-20T03:32:20.025Z,0.30
2023-03-20T03:33:20.023Z,0.30
2023-03-20T03:34:20.000Z,0.30
2023-03-20T03:35:19.987Z,0.20
2023-03-20T03:36:19.973Z,0.30
2023-03-20T03:37:19.961Z,0.30
2023-03-20T03:38:19.954Z,0.20
2023-03-20T03:39:19.937Z,0.20
2023-03-20T03:40:19.926Z,0.30
2023-03-20T03:41:19.916Z,0.20
2023-03-20T03:42:19.896Z,0.30
2023-03-20T03:44:19.872Z,0.30
2023-03-20T03:45:19.861Z,0.20
2023-03-20T03:46:19.895Z,0.30
2023-03-20T03:47:19.894Z,0.20
2023-03-20T03:48:19.834Z,0.20
2023-03-20T03:49:19.811Z,0.30
2023-03-20T03:50:19.820Z,0.30
2023-03-20T03:51:19.784Z,0.30
2023-03-20T03:52:19.776Z,0.30
2023-03-20T03:53:19.762Z,0.30
2023-03-20T03:54:19.756Z,0.30
2023-03-20T03:55:19.728Z,0.40
2023-03-20T03:56:19.771Z,0.30
2023-03-20T03:57:19.706Z,0.30
2023-03-20T03:58:19.694Z,0.30
2023-03-20T03:59:19.694Z,0.30
2023-03-20T04:00:19.669Z,0.30
2023-03-20T04:01:19.660Z,0.30
2023-03-20T04:02:19.659Z,0.30
2023-03-20T04:03:19.653Z,0.30
2023-03-20T04:04:20.645Z,0.20
2023-03-20T04:05:19.609Z,0.30
2023-03-20T04:06:19.594Z,0.30
2023-03-20T04:07:19.581Z,0.30
2023-03-20T04:08:19.569Z,0.30
2023-03-20T04:09:19.555Z,0.30
2023-03-20T04:10:19.549Z,0.30
2023-03-20T04:11:19.528Z,0.20
2023-03-20T04:12:19.520Z,0.30
2023-03-20T04:13:19.516Z,0.30
2023-03-20T04:14:19.500Z,0.30
2023-03-20T04:15:19.479Z,0.30
2023-03-20T04:16:19.562Z,0.30
2023-03-20T04:17:19.454Z,0.30
2023-03-20T04:18:19.446Z,0.30
2023-03-20T04:19:19.454Z,0.20
2023-03-20T04:20:19.419Z,0.30
2023-03-20T04:21:19.405Z,0.30
2023-03-20T04:22:19.394Z,0.30
2023-03-20T04:23:19.380Z,0.30
2023-03-20T04:24:19.365Z,0.20
2023-03-20T04:25:19.358Z,0.20
2023-03-20T04:26:19.348Z,0.30
2023-03-20T04:27:19.332Z,0.30
2023-03-20T04:28:19.318Z,0.20
2023-03-20T04:29:19.306Z,0.20
2023-03-20T04:30:19.291Z,0.20
2023-03-20T04:31:19.349Z,0.30
2023-03-20T04:32:19.270Z,0.20
2023-03-20T04:33:19.256Z,0.20
2023-03-20T04:34:19.240Z,0.30
2023-03-20T04:35:19.253Z,0.30
2023-03-20T04:36:19.337Z,0.30
2023-03-20T04:37:19.201Z,0.20
2023-03-20T04:38:19.195Z,0.30
2023-03-20T04:39:19.175Z,0.30
2023-03-20T04:40:19.184Z,0.20
2023-03-20T04:41:19.150Z,0.30
2023-03-20T04:42:19.139Z,0.20
2023-03-20T04:43:19.148Z,0.30
2023-03-20T04:44:19.113Z,0.40
2023-03-20T04:45:19.100Z,0.30
2023-03-20T04:46:19.197Z,0.30
2023-03-20T04:47:19.073Z,0.30
2023-03-20T04:48:19.071Z,0.30
2023-03-20T04:49:19.048Z,0.30
2023-03-20T04:50:19.037Z,0.30
2023-03-20T04:51:19.066Z,0.30
2023-03-20T04:52:19.013Z,0.30
2023-03-20T04:53:19.005Z,0.30
2023-03-20T04:54:18.992Z,0.30
2023-03-20T04:55:18.973Z,0.20
2023-03-20T04:56:18.962Z,0.30
2023-03-20T04:57:18.945Z,0.30
2023-03-20T04:58:18.936Z,0.20
2023-03-20T04:59:18.921Z,0.30
2023-03-20T05:00:18.912Z,0.30
2023-03-20T05:01:18.902Z,0.30
2023-03-20T05:02:18.893Z,0.30
2023-03-20T05:03:19.876Z,0.20
2023-03-20T05:04:18.881Z,0.20
2023-03-20T05:05:18.844Z,0.30
2023-03-20T05:06:18.838Z,0.20
2023-03-20T05:07:18.840Z,0.30
2023-03-20T05:08:18.815Z,0.30
2023-03-20T05:09:18.806Z,0.30
2023-03-20T05:10:18.781Z,0.30
2023-03-20T05:11:18.766Z,0.30
2023-03-20T05:12:18.754Z,0.30
2023-03-20T05:13:18.738Z,0.30
2023-03-20T05:14:18.728Z,0.30
2023-03-20T05:15:18.716Z,0.30
2023-03-20T05:16:18.722Z,0.30
2023-03-20T05:17:18.687Z,0.30
2023-03-20T05:18:18.680Z,0.30
2023-03-20T05:19:18.659Z,0.30
2023-03-20T05:20:18.650Z,0.30
2023-03-20T05:21:18.636Z,0.30
2023-03-20T05:22:18.628Z,0.20
2023-03-20T05:23:18.632Z,0.30
2023-03-20T05:24:18.601Z,31.10
2023-03-20T05:25:18.614Z,0.60
2023-03-20T05:26:18.577Z,0.60
2023-03-20T05:27:18.564Z,0.50
2023-03-20T05:28:18.549Z,0.60
2023-03-20T05:29:18.539Z,0.60
2023-03-20T05:30:18.526Z,0.60
2023-03-20T05:31:18.536Z,0.60
2023-03-20T05:32:18.503Z,0.60
2023-03-20T05:33:18.528Z,0.60
2023-03-20T05:34:18.471Z,30.00
2023-03-20T05:35:18.461Z,0.50
2023-03-20T05:36:18.470Z,0.70
2023-03-20T05:37:18.442Z,0.60
2023-03-20T05:38:18.420Z,0.60
2023-03-20T05:39:18.436Z,0.70
2023-03-20T05:40:18.394Z,0.50
2023-03-20T05:41:18.377Z,0.60
2023-03-20T05:42:18.365Z,0.60
2023-03-20T05:43:18.358Z,0.50
2023-03-20T05:44:18.344Z,0.60
2023-03-20T05:45:18.332Z,61.40
2023-03-20T05:46:18.378Z,0.50
2023-03-20T05:47:18.301Z,0.50
2023-03-20T05:48:18.293Z,0.50
2023-03-20T05:49:18.276Z,0.60
2023-03-20T05:50:18.262Z,0.50
2023-03-20T05:51:18.255Z,0.50
2023-03-20T05:52:18.241Z,0.50
2023-03-20T05:53:18.227Z,0.50
2023-03-20T05:54:18.212Z,0.50
2023-03-20T05:55:18.390Z,0.60
2023-03-20T05:56:18.186Z,14.00
2023-03-20T05:57:18.197Z,0.60
2023-03-20T05:58:18.162Z,0.60
2023-03-20T05:59:18.149Z,0.60
2023-03-20T06:00:18.137Z,0.60
2023-03-20T06:01:18.137Z,0.50
2023-03-20T06:02:18.156Z,0.60
2023-03-20T06:03:18.162Z,0.50
2023-03-20T06:04:18.086Z,0.60
2023-03-20T06:05:18.073Z,0.70
2023-03-20T06:06:18.063Z,47.29
2023-03-20T06:07:18.048Z,0.60
2023-03-20T06:08:18.034Z,0.50
2023-03-20T06:09:18.027Z,0.60
2023-03-20T06:10:18.009Z,0.60
2023-03-20T06:11:18.019Z,0.50
2023-03-20T06:12:17.987Z,0.50
2023-03-20T06:13:17.969Z,0.60
2023-03-20T06:14:17.957Z,0.50
2023-03-20T06:15:17.944Z,0.50
2023-03-20T06:16:17.953Z,0.60
2023-03-20T06:17:17.920Z,61.40
2023-03-20T06:18:17.904Z,62.29
2023-03-20T06:19:17.893Z,61.29
2023-03-20T06:20:17.877Z,59.70
2023-03-20T06:21:17.865Z,60.90
2023-03-20T06:22:17.855Z,57.79
2023-03-20T06:23:17.839Z,56.29
2023-03-20T06:24:17.826Z,56.00
2023-03-20T06:25:17.812Z,55.59
2023-03-20T06:26:17.825Z,53.79
2023-03-20T06:27:17.809Z,52.90
2023-03-20T06:28:17.775Z,50.90
2023-03-20T06:29:17.764Z,51.79
2023-03-20T06:30:17.756Z,50.20
2023-03-20T06:31:17.780Z,49.70
2023-03-20T06:32:17.718Z,49.40
2023-03-20T06:33:17.770Z,50.29
2023-03-20T06:34:17.695Z,49.90
2023-03-20T06:35:17.702Z,50.79
2023-03-20T06:36:17.666Z,50.20
2023-03-20T06:37:17.649Z,49.20
2023-03-20T06:38:17.639Z,48.29
2023-03-20T06:39:17.622Z,47.79
2023-03-20T06:40:17.612Z,48.70
2023-03-20T06:41:33.428Z,48.00
2023-03-20T06:42:17.624Z,47.20
2023-03-20T06:43:17.597Z,46.40
2023-03-20T06:44:17.555Z,46.70
2023-03-20T06:45:17.542Z,49.79
2023-03-20T06:46:17.557Z,51.70
2023-03-20T06:47:17.554Z,54.50
2023-03-20T06:48:17.502Z,54.50
2023-03-20T06:49:17.487Z,53.00
2023-03-20T06:50:17.477Z,53.79
2023-03-20T06:51:17.462Z,60.09
2023-03-20T06:52:17.472Z,58.29
2023-03-20T06:53:17.452Z,61.09
2023-03-20T06:54:17.426Z,60.70
2023-03-20T06:55:17.404Z,61.90
2023-03-20T06:56:17.396Z,66.09
2023-03-20T06:57:17.381Z,66.80
2023-03-20T06:59:17.382Z,79.69
2023-03-20T07:00:17.344Z,73.30
2023-03-20T07:01:17.385Z,71.50
2023-03-20T07:02:17.319Z,70.59
2023-03-20T07:03:17.306Z,73.00
2023-03-20T07:04:17.328Z,73.19
2023-03-20T07:05:17.354Z,72.90
2023-03-20T07:06:17.261Z,71.19
2023-03-20T07:07:17.253Z,70.69
2023-03-20T07:08:17.238Z,69.69
2023-03-20T07:09:17.225Z,72.90
2023-03-20T07:10:17.249Z,85.80
2023-03-20T07:11:17.200Z,87.69
2023-03-20T07:12:17.186Z,89.90
2023-03-20T07:13:17.174Z,82.80
2023-03-20T07:14:17.162Z,76.00
2023-03-20T07:15:17.216Z,81.19
2023-03-20T07:16:17.218Z,89.19
2023-03-20T07:17:17.138Z,95.19
2023-03-20T07:18:17.114Z,104.00
2023-03-20T07:19:17.099Z,102.09
2023-03-20T07:20:17.089Z,87.59
2023-03-20T07:21:17.089Z,73.30
2023-03-20T07:22:17.058Z,72.90
2023-03-20T07:23:17.046Z,73.40
2023-03-20T07:24:17.031Z,77.50
2023-03-20T07:25:17.024Z,85.30
2023-03-20T07:26:17.040Z,89.90
2023-03-20T07:27:16.994Z,90.50
2023-03-20T07:28:16.980Z,81.69
2023-03-20T07:29:16.968Z,83.40
2023-03-20T07:30:16.957Z,88.00
2023-03-20T07:31:16.996Z,92.40
2023-03-20T07:32:16.927Z,94.00
2023-03-20T07:33:16.991Z,93.90
2023-03-20T07:34:16.919Z,93.30
2023-03-20T07:35:16.921Z,86.09
2023-03-20T07:36:16.875Z,88.30
2023-03-20T07:37:16.860Z,88.19
2023-03-20T07:38:16.846Z,94.40
2023-03-20T07:39:16.888Z,93.50
2023-03-20T07:40:16.818Z,98.90
2023-03-20T07:41:16.850Z,94.30
2023-03-20T07:42:16.798Z,96.50
2023-03-20T07:43:16.781Z,92.50
2023-03-20T07:44:16.765Z,91.09
2023-03-20T07:45:16.757Z,86.59
2023-03-20T07:46:16.853Z,81.90
2023-03-20T07:47:16.786Z,88.80
2023-03-20T07:48:16.713Z,91.90
2023-03-20T07:49:16.701Z,97.09
2023-03-20T07:50:16.684Z,101.09
2023-03-20T07:51:16.676Z,107.90
2023-03-20T07:52:16.658Z,109.90
2023-03-20T07:53:16.646Z,103.59
2023-03-20T07:54:16.641Z,108.19
2023-03-20T07:55:18.465Z,104.90
2023-03-20T07:56:16.609Z,109.30
2023-03-20T07:57:16.593Z,108.30
2023-03-20T07:58:16.579Z,109.59
2023-03-20T07:59:16.563Z,107.80
2023-03-20T08:00:16.554Z,106.50
2023-03-20T08:01:16.539Z,108.50
2023-03-20T08:02:16.534Z,100.19
2023-03-20T08:03:16.716Z,100.19
2023-03-20T08:04:16.506Z,106.00
2023-03-20T08:05:16.497Z,107.69
2023-03-20T08:06:16.470Z,103.09
2023-03-20T08:07:16.464Z,105.80
2023-03-20T08:08:16.451Z,94.59
2023-03-20T08:09:16.435Z,88.50
2023-03-20T08:10:16.428Z,77.69
2023-03-20T08:11:16.412Z,79.00
2023-03-20T08:12:16.398Z,92.19
2023-03-20T08:13:16.399Z,82.30
2023-03-20T08:14:16.383Z,74.69
2023-03-20T08:15:16.383Z,78.80
2023-03-20T08:16:16.389Z,82.00
2023-03-20T08:17:19.398Z,78.30
2023-03-20T08:18:16.317Z,86.09
2023-03-20T08:19:16.329Z,91.40
2023-03-20T08:20:16.362Z,93.30
2023-03-20T08:21:16.289Z,90.50
2023-03-20T08:22:16.281Z,93.90
2023-03-20T08:23:17.727Z,98.00
2023-03-20T08:24:16.252Z,104.90
2023-03-20T08:25:16.236Z,113.90
2023-03-20T08:26:16.220Z,105.19
2023-03-20T08:27:16.203Z,96.80
2023-03-20T08:28:16.191Z,97.19
2023-03-20T08:29:16.202Z,100.09
2023-03-20T08:30:16.162Z,108.00
2023-03-20T08:31:16.283Z,110.00
2023-03-20T08:32:16.133Z,105.00
2023-03-20T08:33:16.166Z,99.30
2023-03-20T08:34:16.114Z,96.69
2023-03-20T08:35:29.987Z,104.00
2023-03-20T08:36:18.357Z,105.69
2023-03-20T08:37:16.083Z,105.50
2023-03-20T08:38:16.060Z,100.80
2023-03-20T08:39:16.047Z,96.30
2023-03-20T08:40:16.031Z,97.59
2023-03-20T08:41:16.034Z,107.30
2023-03-20T08:42:16.009Z,107.80
2023-03-20T08:43:15.994Z,104.00
2023-03-20T08:44:15.979Z,98.50
2023-03-20T08:45:15.968Z,93.50
2023-03-20T08:46:16.067Z,89.59
2023-03-20T08:47:15.943Z,89.19
2023-03-20T08:48:15.926Z,82.69
2023-03-20T08:49:15.929Z,75.00
2023-03-20T08:50:15.902Z,72.69
2023-03-20T08:51:15.913Z,86.69
2023-03-20T08:52:15.874Z,93.40
2023-03-20T08:53:15.861Z,92.09
2023-03-20T08:54:15.854Z,93.69
2023-03-20T08:55:15.875Z,94.19
2023-03-20T08:56:15.852Z,95.59
2023-03-20T08:57:15.809Z,90.80
2023-03-20T08:58:15.791Z,85.09
2023-03-20T08:59:15.783Z,78.09
2023-03-20T09:00:15.769Z,72.00
2023-03-20T09:01:15.812Z,69.59
2023-03-20T09:02:15.916Z,70.50
2023-03-20T09:03:15.912Z,67.59
2023-03-20T09:04:15.712Z,69.19
2023-03-20T09:05:15.700Z,71.09
2023-03-20T09:06:15.685Z,70.90
2023-03-20T09:07:15.696Z,67.90
2023-03-20T09:08:15.662Z,72.19
2023-03-20T09:09:15.709Z,63.40
2023-03-20T09:10:15.633Z,67.69
2023-03-20T09:11:15.620Z,65.40
2023-03-20T09:12:15.608Z,61.40
2023-03-20T09:13:26.687Z,58.90
2023-03-20T09:14:17.579Z,56.29
2023-03-20T09:15:15.578Z,53.20
2023-03-20T09:16:15.673Z,54.00
2023-03-20T09:17:15.574Z,54.70
2023-03-20T09:18:15.529Z,52.00
2023-03-20T09:19:15.530Z,58.59
2023-03-20T09:20:15.513Z,58.50
2023-03-20T09:21:15.493Z,56.29
2023-03-20T09:22:15.484Z,53.29
2023-03-20T09:23:15.500Z,54.00
2023-03-20T09:24:15.449Z,54.00
2023-03-20T09:25:15.444Z,55.70
2023-03-20T09:26:15.429Z,57.79
2023-03-20T09:27:15.423Z,60.40
2023-03-20T09:28:15.407Z,66.30
2023-03-20T09:29:15.386Z,63.29
2023-03-20T09:30:15.374Z,58.20
2023-03-20T09:31:15.460Z,61.79
2023-03-20T09:32:15.354Z,69.80
2023-03-20T09:33:15.379Z,68.59
2023-03-20T09:34:15.320Z,59.40
2023-03-20T09:35:15.308Z,53.09
2023-03-20T09:36:15.328Z,41.70
2023-03-20T09:37:15.288Z,43.20
2023-03-20T09:38:15.265Z,46.29
2023-03-20T09:39:15.281Z,45.00
2023-03-20T09:40:15.237Z,45.09
2023-03-20T09:41:15.226Z,53.20
2023-03-20T09:42:15.210Z,61.90
2023-03-20T09:43:15.204Z,61.09
2023-03-20T09:44:15.186Z,59.40
2023-03-20T09:45:15.175Z,58.50
2023-03-20T09:46:15.187Z,53.50
2023-03-20T09:47:21.337Z,51.29
2023-03-20T09:48:17.134Z,54.20
2023-03-20T09:49:15.124Z,53.29
2023-03-20T09:50:15.128Z,51.59
2023-03-20T09:51:15.096Z,50.90
2023-03-20T09:52:15.109Z,53.50
2023-03-20T09:53:15.069Z,54.59
2023-03-20T09:54:15.074Z,59.09
2023-03-20T09:55:15.126Z,60.70
2023-03-20T09:56:15.027Z,61.40
2023-03-20T09:57:15.016Z,58.20
2023-03-20T09:58:14.998Z,56.20
2023-03-20T09:59:15.004Z,53.29
2023-03-20T10:00:14.976Z,55.90
2023-03-20T10:01:14.962Z,51.59
2023-03-20T10:02:14.979Z,52.90
2023-03-20T10:03:14.934Z,55.09
2023-03-20T10:04:14.949Z,57.40
2023-03-20T10:05:14.910Z,59.40
2023-03-20T10:06:14.898Z,57.00
2023-03-20T10:07:14.880Z,57.29
2023-03-20T10:08:16.237Z,57.00
2023-03-20T10:09:14.852Z,58.70
2023-03-20T10:10:14.836Z,58.79
2023-03-20T10:11:14.854Z,54.29
2023-03-20T10:12:14.811Z,61.29
2023-03-20T10:13:14.798Z,61.59
2023-03-20T10:14:16.694Z,52.90
2023-03-20T10:15:14.774Z,48.20
2023-03-20T10:16:14.862Z,51.40
2023-03-20T10:17:14.745Z,57.90
2023-03-20T10:18:14.728Z,55.90
2023-03-20T10:19:14.715Z,55.70
2023-03-20T10:20:14.703Z,53.29
2023-03-20T10:21:14.692Z,52.79
2023-03-20T10:22:14.678Z,51.00
2023-03-20T10:23:14.665Z,47.90
2023-03-20T10:24:14.661Z,46.50
2023-03-20T10:25:14.649Z,44.79
2023-03-20T10:26:14.655Z,46.79
2023-03-20T10:27:14.640Z,51.79
2023-03-20T10:28:14.601Z,57.09
2023-03-20T10:29:14.599Z,54.59
2023-03-20T10:30:14.571Z,55.20
2023-03-20T10:31:14.605Z,53.40
2023-03-20T10:32:14.557Z,51.50
2023-03-20T10:33:14.716Z,48.09
2023-03-20T10:34:14.519Z,53.09
2023-03-20T10:35:14.514Z,48.90
2023-03-20T10:36:14.497Z,55.79
2023-03-20T10:37:16.782Z,53.70
2023-03-20T10:38:14.476Z,54.00
2023-03-20T10:39:14.459Z,52.00
2023-03-20T10:40:14.439Z,54.00
2023-03-20T10:41:14.428Z,55.50
2023-03-20T10:42:14.417Z,55.59
2023-03-20T10:43:14.446Z,52.40
2023-03-20T10:44:14.387Z,54.20
2023-03-20T10:45:14.385Z,55.09
2023-03-20T10:46:14.362Z,52.70
2023-03-20T10:47:14.446Z,43.70
2023-03-20T10:48:14.350Z,47.50
2023-03-20T10:49:14.326Z,51.70
2023-03-20T10:50:14.309Z,48.50
2023-03-20T10:51:14.297Z,50.29
2023-03-20T10:52:14.284Z,49.40
2023-03-20T10:53:14.272Z,52.40
2023-03-20T10:54:14.257Z,49.59
2023-03-20T10:55:14.253Z,50.09
2023-03-20T10:56:16.889Z,51.29
2023-03-20T10:57:14.217Z,49.40
2023-03-20T10:58:14.212Z,44.50
2023-03-20T10:59:14.216Z,45.79
2023-03-20T11:00:14.179Z,44.50
2023-03-20T11:01:14.378Z,47.09
2023-03-20T11:02:14.160Z,45.09
2023-03-20T11:03:14.145Z,45.70
2023-03-20T11:04:14.168Z,45.00
2023-03-20T11:05:14.121Z,49.09
2023-03-20T11:06:14.105Z,47.40
2023-03-20T11:07:14.095Z,50.00
2023-03-20T11:08:14.148Z,48.00
2023-03-20T11:09:14.071Z,47.90
2023-03-20T11:10:14.054Z,49.70
2023-03-20T11:11:14.051Z,48.59
2023-03-20T11:12:14.035Z,46.59
2023-03-20T11:13:14.030Z,51.20
2023-03-20T11:14:14.006Z,52.20
2023-03-20T11:15:14.040Z,46.79
2023-03-20T11:16:13.988Z,47.50
2023-03-20T11:17:13.972Z,45.20
2023-03-20T11:18:13.986Z,46.70
2023-03-20T11:19:13.947Z,44.90
2023-03-20T11:20:13.948Z,45.40
2023-03-20T11:21:13.927Z,42.00
2023-03-20T11:22:13.911Z,41.40
2023-03-20T11:23:13.902Z,42.09
2023-03-20T11:24:13.888Z,40.90
2023-03-20T11:25:13.876Z,40.59
2023-03-20T11:26:13.863Z,42.70
2023-03-20T11:27:13.850Z,44.20
2023-03-20T11:28:13.839Z,47.90
2023-03-20T11:29:13.831Z,48.90
2023-03-20T11:30:13.823Z,50.90
2023-03-20T11:31:13.835Z,41.40
2023-03-20T11:32:13.893Z,39.29
2023-03-20T11:33:13.800Z,38.59
2023-03-20T11:34:13.760Z,41.00
2023-03-20T11:35:13.743Z,45.70
2023-03-20T11:36:13.820Z,37.20
2023-03-20T11:37:13.714Z,39.50
2023-03-20T11:38:13.718Z,43.09
2023-03-20T11:39:13.687Z,51.00
2023-03-20T11:40:13.699Z,44.70
2023-03-20T11:41:13.661Z,46.29
2023-03-20T11:42:13.648Z,44.29
2023-03-20T11:43:13.644Z,49.40
2023-03-20T11:45:13.608Z,53.20
2023-03-20T11:46:13.689Z,54.20
2023-03-20T11:47:13.604Z,49.70
2023-03-20T11:48:13.569Z,49.00
2023-03-20T11:49:13.556Z,53.40
2023-03-20T11:50:13.541Z,50.59
2023-03-20T11:51:13.525Z,50.40
2023-03-20T11:52:13.515Z,54.40
2023-03-20T11:53:13.500Z,51.20
2023-03-20T11:54:13.490Z,49.29
2023-03-20T11:55:13.475Z,43.70
2023-03-20T11:56:13.472Z,46.59
2023-03-20T11:57:13.476Z,52.20
2023-03-20T11:58:13.441Z,52.79
2023-03-20T11:59:13.429Z,60.50
2023-03-20T12:00:13.418Z,54.90
2023-03-20T12:01:13.409Z,63.59
2023-03-20T12:02:13.514Z,62.40
2023-03-20T12:03:13.432Z,64.90
2023-03-20T12:04:13.364Z,57.70
2023-03-20T12:05:15.734Z,58.50
2023-03-20T12:06:13.336Z,58.00
2023-03-20T12:07:13.318Z,57.70
2023-03-20T12:08:13.307Z,56.00
2023-03-20T12:09:13.293Z,56.90
2023-03-20T12:10:13.285Z,60.40
2023-03-20T12:11:13.264Z,57.00
2023-03-20T12:12:13.257Z,63.29
2023-03-20T12:13:13.268Z,64.40
2023-03-20T12:14:13.228Z,60.79
2023-03-20T12:15:13.230Z,57.50
2023-03-20T12:16:13.295Z,54.09
2023-03-20T12:17:13.186Z,51.20
2023-03-20T12:18:13.176Z,50.90
2023-03-20T12:19:13.187Z,50.00
2023-03-20T12:20:13.220Z,51.09
2023-03-20T12:21:13.135Z,50.00
2023-03-20T12:22:13.128Z,48.40
2023-03-20T12:23:13.135Z,52.59
2023-03-20T12:24:13.097Z,51.09
2023-03-20T12:25:13.084Z,48.20
2023-03-20T12:26:13.071Z,51.79
2023-03-20T12:27:13.057Z,51.90
2023-03-20T12:28:13.044Z,55.40
2023-03-20T12:29:13.035Z,58.59
2023-03-20T12:30:13.017Z,61.90
2023-03-20T12:31:13.060Z,60.00
2023-03-20T12:32:12.995Z,54.90
2023-03-20T12:33:13.035Z,55.40
2023-03-20T12:34:12.964Z,53.70
2023-03-20T12:35:15.401Z,54.20
2023-03-20T12:36:12.936Z,54.79
2023-03-20T12:37:12.929Z,53.50
2023-03-20T12:38:12.907Z,52.00
2023-03-20T12:39:12.895Z,45.90
2023-03-20T12:40:12.943Z,47.20
2023-03-20T12:41:12.875Z,48.59
2023-03-20T12:42:12.853Z,47.40
2023-03-20T12:43:12.838Z,48.40
2023-03-20T12:44:12.827Z,48.59
2023-03-20T12:45:12.817Z,51.79
2023-03-20T12:46:12.857Z,53.20
2023-03-20T12:47:12.785Z,52.90
2023-03-20T12:48:12.784Z,52.50
2023-03-20T12:49:12.770Z,50.20
2023-03-20T12:50:12.875Z,52.90
2023-03-20T12:51:13.783Z,51.09
2023-03-20T12:52:12.723Z,56.29
2023-03-20T12:53:12.705Z,55.29
2023-03-20T12:54:12.697Z,55.00
2023-03-20T12:55:12.677Z,49.09
2023-03-20T12:56:12.671Z,53.00
2023-03-20T12:57:12.647Z,52.90
2023-03-20T12:58:12.640Z,49.79
2023-03-20T12:59:12.622Z,48.90
2023-03-20T13:00:12.620Z,52.09
2023-03-20T13:01:12.600Z,56.20
2023-03-20T13:02:12.591Z,53.90
2023-03-20T13:03:12.710Z,51.40
2023-03-20T13:04:12.560Z,47.90
2023-03-20T13:05:12.554Z,48.20